sensor_id;sensor_type;location;lat;lon;timestamp;P1;durP1;ratioP1;P2;durP2;ratioP2
6679;SDS011;3376;42.664;23.346;2023-02-10T16:57:50;85.50;;;41.43;;
6679;SDS011;3376;42.664;23.346;2023-02-10T17:00:19;70.45;;;39.85;;
6679;SDS011;3376;42.664;23.346;2023-02-10T17:02:46;82.97;;;40.33;;
6679;SDS011;3376;42.664;23.346;2023-02-10T17:05:14;84.33;;;41.63;;
6679;SDS011;3376;42.664;23.346;2023-02-10T17:07:42;71.55;;;35.85;;
6679;SDS011;3376;42.664;23.346;2023-02-10T17:10:12;88.93;;;40.80;;
6679;SDS011;3376;42.664;23.346;2023-02-10T17:12:43;78.03;;;35.70;;
6679;SDS011;3376;42.664;23.346;2023-02-10T17:15:10;70.63;;;35.42;;
6679;SDS011;3376;42.664;23.346;2023-02-10T17:17:37;72.60;;;35.60;;
6679;SDS011;3376;42.664;23.346;2023-02-10T17:20:05;83.87;;;39.50;;
6679;SDS011;3376;42.664;23.346;2023-02-10T17:22:33;78.22;;;36.72;;
6679;SDS011;3376;42.664;23.346;2023-02-10T17:25:02;82.33;;;36.17;;
6679;SDS011;3376;42.664;23.346;2023-02-10T17:27:29;73.05;;;33.85;;
6679;SDS011;3376;42.664;23.346;2023-02-10T17:29:57;85.63;;;36.65;;
6679;SDS011;3376;42.664;23.346;2023-02-10T17:32:23;72.80;;;33.88;;
6679;SDS011;3376;42.664;23.346;2023-02-10T17:34:51;93.55;;;41.83;;
6679;SDS011;3376;42.664;23.346;2023-02-10T17:37:18;74.38;;;37.28;;
6679;SDS011;3376;42.664;23.346;2023-02-10T17:39:45;66.20;;;34.88;;
6679;SDS011;3376;42.664;23.346;2023-02-10T17:42:15;68.85;;;35.83;;
6679;SDS011;3376;42.664;23.346;2023-02-10T17:44:43;65.20;;;35.35;;
6679;SDS011;3376;42.664;23.346;2023-02-10T17:47:11;88.20;;;35.15;;
6679;SDS011;3376;42.664;23.346;2023-02-10T17:49:38;67.50;;;33.05;;
6679;SDS011;3376;42.664;23.346;2023-02-10T17:52:05;76.18;;;36.08;;
6679;SDS011;3376;42.664;23.346;2023-02-10T17:54:32;67.47;;;33.65;;
6679;SDS011;3376;42.664;23.346;2023-02-10T17:56:58;75.35;;;35.45;;
6679;SDS011;3376;42.664;23.346;2023-02-10T17:59:25;77.32;;;36.45;;
6679;SDS011;3376;42.664;23.346;2023-02-10T18:01:52;69.78;;;36.30;;
6679;SDS011;3376;42.664;23.346;2023-02-10T18:04:22;75.80;;;37.17;;
6679;SDS011;3376;42.664;23.346;2023-02-10T18:06:48;64.18;;;32.85;;
6679;SDS011;3376;42.664;23.346;2023-02-10T18:09:15;74.18;;;32.70;;
6679;SDS011;3376;42.664;23.346;2023-02-10T18:11:42;67.28;;;35.03;;
6679;SDS011;3376;42.664;23.346;2023-02-10T18:14:09;79.43;;;36.42;;
6679;SDS011;3376;42.664;23.346;2023-02-10T18:16:35;76.43;;;35.90;;
6679;SDS011;3376;42.664;23.346;2023-02-10T18:19:02;62.70;;;32.58;;
6679;SDS011;3376;42.664;23.346;2023-02-10T18:21:30;75.82;;;36.38;;
6679;SDS011;3376;42.664;23.346;2023-02-10T18:23:57;78.97;;;42.42;;
6679;SDS011;3376;42.664;23.346;2023-02-10T18:26:26;77.30;;;40.38;;
6679;SDS011;3376;42.664;23.346;2023-02-10T18:28:53;66.82;;;37.10;;
6679;SDS011;3376;42.664;23.346;2023-02-10T18:31:20;70.10;;;35.42;;
6679;SDS011;3376;42.664;23.346;2023-02-10T18:33:47;64.90;;;34.47;;
6679;SDS011;3376;42.664;23.346;2023-02-10T18:36:15;54.17;;;31.13;;
6679;SDS011;3376;42.664;23.346;2023-02-10T18:38:44;56.72;;;30.48;;
6679;SDS011;3376;42.664;23.346;2023-02-10T18:41:12;45.63;;;26.33;;
6679;SDS011;3376;42.664;23.346;2023-02-10T18:43:39;45.60;;;24.85;;
6679;SDS011;3376;42.664;23.346;2023-02-10T18:46:05;42.55;;;21.77;;
6679;SDS011;3376;42.664;23.346;2023-02-10T18:48:32;46.70;;;26.60;;
6679;SDS011;3376;42.664;23.346;2023-02-10T18:51:01;35.25;;;18.83;;
6679;SDS011;3376;42.664;23.346;2023-02-10T18:53:29;32.33;;;19.00;;
6679;SDS011;3376;42.664;23.346;2023-02-10T18:56:04;30.92;;;17.23;;
6679;SDS011;3376;42.664;23.346;2023-02-10T18:58:32;29.05;;;17.50;;
6679;SDS011;3376;42.664;23.346;2023-02-10T19:01:01;34.83;;;16.77;;
6679;SDS011;3376;42.664;23.346;2023-02-10T19:03:29;25.33;;;16.65;;
6679;SDS011;3376;42.664;23.346;2023-02-10T19:05:56;28.95;;;15.00;;
6679;SDS011;3376;42.664;23.346;2023-02-10T19:08:23;22.10;;;15.40;;
6679;SDS011;3376;42.664;23.346;2023-02-10T19:10:50;26.42;;;18.05;;
6679;SDS011;3376;42.664;23.346;2023-02-10T19:13:18;25.38;;;15.63;;
6679;SDS011;3376;42.664;23.346;2023-02-10T19:15:46;27.48;;;15.70;;
6679;SDS011;3376;42.664;23.346;2023-02-10T19:18:14;20.42;;;13.48;;
6679;SDS011;3376;42.664;23.346;2023-02-10T19:20:41;21.17;;;14.80;;
6679;SDS011;3376;42.664;23.346;2023-02-10T19:23:08;19.45;;;14.00;;
6679;SDS011;3376;42.664;23.346;2023-02-10T19:25:34;22.70;;;13.15;;
6679;SDS011;3376;42.664;23.346;2023-02-10T19:28:01;18.92;;;13.35;;
6679;SDS011;3376;42.664;23.346;2023-02-10T19:30:30;17.23;;;14.80;;
6679;SDS011;3376;42.664;23.346;2023-02-10T19:32:56;17.73;;;11.63;;
6679;SDS011;3376;42.664;23.346;2023-02-10T19:35:23;15.27;;;12.50;;
6679;SDS011;3376;42.664;23.346;2023-02-10T19:37:50;16.98;;;12.45;;
6679;SDS011;3376;42.664;23.346;2023-02-10T19:40:17;17.13;;;12.77;;
6679;SDS011;3376;42.664;23.346;2023-02-10T19:42:44;16.80;;;12.55;;
6679;SDS011;3376;42.664;23.346;2023-02-10T19:45:11;12.00;;;10.65;;
6679;SDS011;3376;42.664;23.346;2023-02-10T19:47:39;15.90;;;11.20;;
6679;SDS011;3376;42.664;23.346;2023-02-10T19:50:06;17.08;;;10.27;;
6679;SDS011;3376;42.664;23.346;2023-02-10T19:52:33;25.98;;;17.45;;
6679;SDS011;3376;42.664;23.346;2023-02-10T19:55:00;19.80;;;14.30;;
6679;SDS011;3376;42.664;23.346;2023-02-10T19:57:27;13.90;;;10.80;;
6679;SDS011;3376;42.664;23.346;2023-02-10T19:59:55;14.13;;;10.43;;
6679;SDS011;3376;42.664;23.346;2023-02-10T20:02:22;12.25;;;10.70;;
6679;SDS011;3376;42.664;23.346;2023-02-10T20:04:50;14.65;;;10.95;;
6679;SDS011;3376;42.664;23.346;2023-02-10T20:07:17;10.68;;;9.57;;
6679;SDS011;3376;42.664;23.346;2023-02-10T20:09:45;11.32;;;9.32;;
6679;SDS011;3376;42.664;23.346;2023-02-10T20:12:11;12.27;;;11.05;;
6679;SDS011;3376;42.664;23.346;2023-02-10T20:14:39;11.63;;;10.43;;
6679;SDS011;3376;42.664;23.346;2023-02-10T20:17:06;10.30;;;9.27;;
6679;SDS011;3376;42.664;23.346;2023-02-10T20:19:33;9.65;;;8.75;;
6679;SDS011;3376;42.664;23.346;2023-02-10T20:22:01;18.33;;;12.50;;
6679;SDS011;3376;42.664;23.346;2023-02-10T20:24:28;15.52;;;10.10;;
6679;SDS011;3376;42.664;23.346;2023-02-10T20:26:55;9.25;;;8.35;;
6679;SDS011;3376;42.664;23.346;2023-02-10T20:29:21;11.20;;;9.68;;
6679;SDS011;3376;42.664;23.346;2023-02-10T20:31:48;15.43;;;10.48;;
6679;SDS011;3376;42.664;23.346;2023-02-10T20:34:15;12.75;;;9.95;;
6679;SDS011;3376;42.664;23.346;2023-02-10T20:36:42;12.15;;;10.88;;
6679;SDS011;3376;42.664;23.346;2023-02-10T20:39:11;13.35;;;9.82;;
6679;SDS011;3376;42.664;23.346;2023-02-10T20:41:38;10.45;;;9.18;;
6679;SDS011;3376;42.664;23.346;2023-02-10T20:44:05;11.98;;;9.27;;
6679;SDS011;3376;42.664;23.346;2023-02-10T20:46:32;8.90;;;8.05;;
6679;SDS011;3376;42.664;23.346;2023-02-10T20:48:59;11.48;;;10.23;;
6679;SDS011;3376;42.664;23.346;2023-02-10T20:51:29;11.85;;;10.73;;
6679;SDS011;3376;42.664;23.346;2023-02-10T20:53:57;15.80;;;11.52;;
6679;SDS011;3376;42.664;23.346;2023-02-10T20:56:25;11.75;;;10.55;;
6679;SDS011;3376;42.664;23.346;2023-02-10T20:58:52;14.65;;;11.02;;
6679;SDS011;3376;42.664;23.346;2023-02-10T21:01:19;13.32;;;10.88;;
6679;SDS011;3376;42.664;23.346;2023-02-10T21:03:46;15.55;;;12.38;;
6679;SDS011;3376;42.664;23.346;2023-02-10T21:06:14;13.15;;;10.80;;
6679;SDS011;3376;42.664;23.346;2023-02-10T21:08:43;13.00;;;11.45;;
6679;SDS011;3376;42.664;23.346;2023-02-10T21:11:13;13.43;;;10.60;;
6679;SDS011;3376;42.664;23.346;2023-02-10T21:13:42;13.02;;;11.18;;
6679;SDS011;3376;42.664;23.346;2023-02-10T21:16:10;12.48;;;11.27;;
6679;SDS011;3376;42.664;23.346;2023-02-10T21:18:37;15.63;;;12.32;;
6679;SDS011;3376;42.664;23.346;2023-02-10T21:21:05;13.95;;;12.40;;
6679;SDS011;3376;42.664;23.346;2023-02-10T21:23:33;13.95;;;12.20;;
6679;SDS011;3376;42.664;23.346;2023-02-10T21:26:00;13.68;;;11.63;;
6679;SDS011;3376;42.664;23.346;2023-02-10T21:28:27;14.82;;;11.88;;
6679;SDS011;3376;42.664;23.346;2023-02-10T21:30:56;15.35;;;10.90;;
6679;SDS011;3376;42.664;23.346;2023-02-10T21:33:23;14.18;;;11.15;;
6679;SDS011;3376;42.664;23.346;2023-02-10T21:35:51;14.30;;;10.55;;
6679;SDS011;3376;42.664;23.346;2023-02-10T21:38:19;16.30;;;11.75;;
6679;SDS011;3376;42.664;23.346;2023-02-10T21:40:46;14.63;;;11.10;;
6679;SDS011;3376;42.664;23.346;2023-02-10T21:43:13;15.52;;;12.13;;
6679;SDS011;3376;42.664;23.346;2023-02-10T21:45:45;13.65;;;12.32;;
6679;SDS011;3376;42.664;23.346;2023-02-10T21:48:15;14.77;;;12.85;;
6679;SDS011;3376;42.664;23.346;2023-02-10T21:50:42;19.88;;;13.15;;
6679;SDS011;3376;42.664;23.346;2023-02-10T21:53:09;15.30;;;12.82;;
6679;SDS011;3376;42.664;23.346;2023-02-10T21:55:37;19.55;;;13.40;;
6679;SDS011;3376;42.664;23.346;2023-02-10T21:58:03;23.25;;;13.73;;
6679;SDS011;3376;42.664;23.346;2023-02-10T22:00:31;13.75;;;12.30;;
6679;SDS011;3376;42.664;23.346;2023-02-10T22:02:58;18.42;;;12.10;;
6679;SDS011;3376;42.664;23.346;2023-02-10T22:05:26;16.50;;;13.18;;
6679;SDS011;3376;42.664;23.346;2023-02-10T22:07:53;21.50;;;12.70;;
6679;SDS011;3376;42.664;23.346;2023-02-10T22:10:21;15.65;;;12.13;;
6679;SDS011;3376;42.664;23.346;2023-02-10T22:12:47;15.15;;;12.15;;
6679;SDS011;3376;42.664;23.346;2023-02-10T22:15:14;16.00;;;11.88;;
6679;SDS011;3376;42.664;23.346;2023-02-10T22:17:41;18.15;;;11.85;;
6679;SDS011;3376;42.664;23.346;2023-02-10T22:20:08;15.02;;;11.65;;
6679;SDS011;3376;42.664;23.346;2023-02-10T22:22:36;18.02;;;13.38;;
6679;SDS011;3376;42.664;23.346;2023-02-10T22:25:03;20.05;;;14.80;;
6679;SDS011;3376;42.664;23.346;2023-02-10T22:27:31;19.83;;;14.70;;
6679;SDS011;3376;42.664;23.346;2023-02-10T22:29:57;14.40;;;12.90;;
6679;SDS011;3376;42.664;23.346;2023-02-10T22:32:24;14.27;;;12.38;;
6679;SDS011;3376;42.664;23.346;2023-02-10T22:34:51;18.67;;;14.10;;
6679;SDS011;3376;42.664;23.346;2023-02-10T22:37:18;16.17;;;12.05;;
6679;SDS011;3376;42.664;23.346;2023-02-10T22:39:46;16.45;;;11.90;;
6679;SDS011;3376;42.664;23.346;2023-02-10T22:42:13;15.38;;;11.90;;
6679;SDS011;3376;42.664;23.346;2023-02-10T22:44:40;15.77;;;11.43;;
6679;SDS011;3376;42.664;23.346;2023-02-10T22:47:07;14.90;;;10.88;;
6679;SDS011;3376;42.664;23.346;2023-02-10T22:49:33;17.75;;;13.82;;
6679;SDS011;3376;42.664;23.346;2023-02-10T22:52:00;14.27;;;11.45;;
6679;SDS011;3376;42.664;23.346;2023-02-10T22:54:27;18.50;;;13.50;;
6679;SDS011;3376;42.664;23.346;2023-02-10T22:56:55;14.48;;;12.85;;
6679;SDS011;3376;42.664;23.346;2023-02-10T22:59:22;16.38;;;13.55;;
6679;SDS011;3376;42.664;23.346;2023-02-10T23:01:48;15.77;;;12.43;;
6679;SDS011;3376;42.664;23.346;2023-02-10T23:04:15;15.07;;;12.55;;
6679;SDS011;3376;42.664;23.346;2023-02-10T23:06:43;18.00;;;13.40;;
6679;SDS011;3376;42.664;23.346;2023-02-10T23:09:14;16.10;;;13.30;;
6679;SDS011;3376;42.664;23.346;2023-02-10T23:11:42;19.35;;;13.55;;
6679;SDS011;3376;42.664;23.346;2023-02-10T23:14:12;15.20;;;13.55;;
6679;SDS011;3376;42.664;23.346;2023-02-10T23:16:39;16.42;;;13.00;;
6679;SDS011;3376;42.664;23.346;2023-02-10T23:19:06;18.80;;;13.63;;
6679;SDS011;3376;42.664;23.346;2023-02-10T23:21:33;13.85;;;12.35;;
6679;SDS011;3376;42.664;23.346;2023-02-10T23:24:00;14.32;;;12.77;;
6679;SDS011;3376;42.664;23.346;2023-02-10T23:26:28;17.98;;;13.32;;
6679;SDS011;3376;42.664;23.346;2023-02-10T23:28:56;16.60;;;13.23;;
6679;SDS011;3376;42.664;23.346;2023-02-10T23:31:25;16.00;;;14.35;;
6679;SDS011;3376;42.664;23.346;2023-02-10T23:33:53;17.75;;;14.02;;
6679;SDS011;3376;42.664;23.346;2023-02-10T23:36:20;18.05;;;12.80;;
6679;SDS011;3376;42.664;23.346;2023-02-10T23:38:47;18.08;;;12.98;;
6679;SDS011;3376;42.664;23.346;2023-02-10T23:41:15;18.85;;;14.05;;
6679;SDS011;3376;42.664;23.346;2023-02-10T23:43:42;15.40;;;13.40;;
6679;SDS011;3376;42.664;23.346;2023-02-10T23:46:09;15.55;;;13.60;;
6679;SDS011;3376;42.664;23.346;2023-02-10T23:48:37;16.50;;;12.90;;
6679;SDS011;3376;42.664;23.346;2023-02-10T23:51:05;15.98;;;12.32;;
6679;SDS011;3376;42.664;23.346;2023-02-10T23:53:33;17.73;;;12.02;;
6679;SDS011;3376;42.664;23.346;2023-02-10T23:56:00;18.35;;;13.93;;
6679;SDS011;3376;42.664;23.346;2023-02-10T23:58:27;13.80;;;12.38;;
